Pagrindinis puslapis
METAR-TAF:

METAR-TAF

Oro uostai :

St. George Municipal Airport

St. George, Juta, Jungtinės Amerikos Valstijos

platuma: 37-05N, ilguma: 113-36W, Aukštis: 896 m

Dabartinis oras

Ataskaita buvo paskelbta 21 minutes, ne 20:56 UTC
Vėjas 4 kt nuo kintamojo kryptimis
Temperatūra 15°C
Drėgmė 31%
Slėgis 1022 hPa
Matomumas: 16.1 km
Giedras dangus

METAR: KSGU 272056Z AUTO VRB04KT 10SM CLR 15/M02 A3019 RMK AO2 SLP213 T01501017 58016

Laikas: 14:17 (21:17 UTC)

Prognozė

Ataskaita buvo paskelbta 3 valandos ir 57 minutes, ne 17:20 UTC
Prognozė galioja nuo 27 metu 18 UTC su 28 metu 18 UTC
Vėjas 4 kt nuo kintamojo kryptimis
Matomumas: 10 km
Išsisklaidę debesys ne aukštis 6000 ft
Išsisklaidę debesys ne aukštis 12000 ft

TAF: KSGU 271720Z 2718/2818 VRB04KT P6SM SCT060 SCT120

Orai ataskaitas ir orų prognozės (METAR, TAF).

turimą stotys yra geltonos ir raudonos taškus žemėlapyje.

Perkelti pele per norėdami pamatyti stoties vardą.

Tada spustelėkite, norėdami matyti oro stebėjimo ir prognozės.

Norėdami pakeisti žemėlapį: spustelėkite ant žalios mygtukų su juodo kryžiaus žemyn,; žalią mygtuką su brūkšneliu, jei norite nutolinti; arba žalių rodyklių gretimoms žemėlapius.


METAR-TAF: